sensor_id;sensor_type;location;lat;lon;timestamp;pressure;altitude;pressure_sealevel;temperature;humidity
967;BME280;56108;48.730;9.304;2022-08-18T00:01:52;97384.63;;;17.55;100.00
967;BME280;56108;48.730;9.304;2022-08-18T00:04:04;97375.19;;;17.51;100.00
967;BME280;56108;48.730;9.304;2022-08-18T00:06:34;97376.66;;;17.45;100.00
967;BME280;56108;48.730;9.304;2022-08-18T00:08:42;97377.94;;;17.41;100.00
967;BME280;56108;48.730;9.304;2022-08-18T00:10:53;97373.88;;;17.37;100.00
967;BME280;56108;48.730;9.304;2022-08-18T00:13:05;97365.41;;;17.32;100.00
967;BME280;56108;48.730;9.304;2022-08-18T00:15:15;97362.34;;;17.27;100.00
967;BME280;56108;48.730;9.304;2022-08-18T00:17:25;97362.66;;;17.24;100.00
967;BME280;56108;48.730;9.304;2022-08-18T00:19:33;97361.66;;;17.25;100.00
967;BME280;56108;48.730;9.304;2022-08-18T00:21:50;97355.81;;;17.30;100.00
967;BME280;56108;48.730;9.304;2022-08-18T00:23:58;97352.38;;;17.19;100.00
967;BME280;56108;48.730;9.304;2022-08-18T00:26:08;97351.53;;;17.19;100.00
967;BME280;56108;48.730;9.304;2022-08-18T00:28:18;97349.97;;;17.16;100.00
967;BME280;56108;48.730;9.304;2022-08-18T00:30:27;97342.22;;;17.13;100.00
967;BME280;56108;48.730;9.304;2022-08-18T00:32:38;97344.66;;;17.07;100.00
967;BME280;56108;48.730;9.304;2022-08-18T00:34:46;97349.06;;;17.08;100.00
967;BME280;56108;48.730;9.304;2022-08-18T00:36:54;97350.91;;;17.07;100.00
967;BME280;56108;48.730;9.304;2022-08-18T00:39:03;97341.47;;;17.03;100.00
967;BME280;56108;48.730;9.304;2022-08-18T00:41:11;97342.47;;;17.02;100.00
967;BME280;56108;48.730;9.304;2022-08-18T00:43:30;97342.91;;;16.98;100.00
967;BME280;56108;48.730;9.304;2022-08-18T00:45:41;97337.53;;;16.98;100.00
967;BME280;56108;48.730;9.304;2022-08-18T00:47:53;97328.78;;;16.95;100.00
967;BME280;56108;48.730;9.304;2022-08-18T00:50:02;97327.25;;;16.93;100.00
967;BME280;56108;48.730;9.304;2022-08-18T00:52:19;97338.69;;;16.95;100.00
967;BME280;56108;48.730;9.304;2022-08-18T00:54:30;97328.25;;;16.92;100.00
967;BME280;56108;48.730;9.304;2022-08-18T00:56:43;97329.94;;;16.93;100.00
967;BME280;56108;48.730;9.304;2022-08-18T00:58:57;97329.09;;;16.92;100.00
967;BME280;56108;48.730;9.304;2022-08-18T01:01:07;97319.19;;;16.93;100.00
967;BME280;56108;48.730;9.304;2022-08-18T01:03:19;97319.19;;;16.93;100.00
967;BME280;56108;48.730;9.304;2022-08-18T01:05:33;97322.72;;;16.93;100.00
967;BME280;56108;48.730;9.304;2022-08-18T01:07:46;97319.88;;;16.95;100.00
967;BME280;56108;48.730;9.304;2022-08-18T01:09:56;97325.09;;;16.97;100.00
967;BME280;56108;48.730;9.304;2022-08-18T01:12:10;97316.03;;;16.98;100.00
967;BME280;56108;48.730;9.304;2022-08-18T01:14:40;97308.81;;;16.98;100.00
967;BME280;56108;48.730;9.304;2022-08-18T01:16:49;97303.44;;;16.98;100.00
967;BME280;56108;48.730;9.304;2022-08-18T01:19:09;97302.44;;;16.99;100.00
967;BME280;56108;48.730;9.304;2022-08-18T01:21:31;97298.44;;;17.03;100.00
967;BME280;56108;48.730;9.304;2022-08-18T01:24:01;97295.75;;;17.03;100.00
967;BME280;56108;48.730;9.304;2022-08-18T01:26:10;97277.63;;;17.05;100.00
967;BME280;56108;48.730;9.304;2022-08-18T01:28:16;97269.25;;;17.08;100.00
967;BME280;56108;48.730;9.304;2022-08-18T01:30:26;97258.63;;;17.07;100.00
967;BME280;56108;48.730;9.304;2022-08-18T01:32:37;97258.16;;;17.11;100.00
967;BME280;56108;48.730;9.304;2022-08-18T01:34:45;97253.78;;;17.10;100.00
967;BME280;56108;48.730;9.304;2022-08-18T01:36:54;97261.94;;;17.18;100.00
967;BME280;56108;48.730;9.304;2022-08-18T01:39:07;97261.41;;;17.15;100.00
967;BME280;56108;48.730;9.304;2022-08-18T01:41:15;97253.50;;;17.13;100.00
967;BME280;56108;48.730;9.304;2022-08-18T01:43:34;97253.34;;;17.15;100.00
967;BME280;56108;48.730;9.304;2022-08-18T01:45:42;97254.19;;;17.15;100.00
967;BME280;56108;48.730;9.304;2022-08-18T01:47:50;97251.69;;;17.22;100.00
967;BME280;56108;48.730;9.304;2022-08-18T01:49:58;97246.84;;;17.26;100.00
967;BME280;56108;48.730;9.304;2022-08-18T01:52:08;97242.78;;;17.21;100.00
967;BME280;56108;48.730;9.304;2022-08-18T01:54:19;97241.09;;;17.20;100.00
967;BME280;56108;48.730;9.304;2022-08-18T01:56:27;97234.09;;;17.28;100.00
967;BME280;56108;48.730;9.304;2022-08-18T01:58:35;97238.78;;;17.26;100.00
967;BME280;56108;48.730;9.304;2022-08-18T02:00:43;97241.56;;;17.16;100.00
967;BME280;56108;48.730;9.304;2022-08-18T02:02:53;97233.66;;;17.14;100.00
967;BME280;56108;48.730;9.304;2022-08-18T02:05:09;97230.31;;;17.12;100.00
967;BME280;56108;48.730;9.304;2022-08-18T02:07:20;97230.31;;;17.12;100.00
967;BME280;56108;48.730;9.304;2022-08-18T02:09:43;97235.81;;;17.11;100.00
967;BME280;56108;48.730;9.304;2022-08-18T02:11:55;97229.38;;;17.04;100.00
967;BME280;56108;48.730;9.304;2022-08-18T02:14:04;97235.78;;;17.03;100.00
967;BME280;56108;48.730;9.304;2022-08-18T02:16:12;97236.44;;;17.05;100.00
967;BME280;56108;48.730;9.304;2022-08-18T02:18:24;97227.69;;;17.03;100.00
967;BME280;56108;48.730;9.304;2022-08-18T02:20:52;97228.69;;;17.02;100.00
967;BME280;56108;48.730;9.304;2022-08-18T02:23:01;97220.69;;;17.10;100.00
967;BME280;56108;48.730;9.304;2022-08-18T02:25:13;97228.75;;;17.10;100.00
967;BME280;56108;48.730;9.304;2022-08-18T02:27:21;97228.91;;;17.08;100.00
967;BME280;56108;48.730;9.304;2022-08-18T02:29:30;97224.38;;;17.09;100.00
967;BME280;56108;48.730;9.304;2022-08-18T02:31:38;97228.09;;;17.08;100.00
967;BME280;56108;48.730;9.304;2022-08-18T02:33:46;97232.66;;;17.15;100.00
967;BME280;56108;48.730;9.304;2022-08-18T02:35:56;97237.41;;;17.21;100.00
967;BME280;56108;48.730;9.304;2022-08-18T02:38:06;97229.31;;;17.13;100.00
967;BME280;56108;48.730;9.304;2022-08-18T02:40:27;97234.72;;;17.21;100.00
967;BME280;56108;48.730;9.304;2022-08-18T02:42:36;97234.88;;;17.20;100.00
967;BME280;56108;48.730;9.304;2022-08-18T02:44:46;97233.38;;;17.17;100.00
967;BME280;56108;48.730;9.304;2022-08-18T02:46:56;97236.19;;;17.16;100.00
967;BME280;56108;48.730;9.304;2022-08-18T02:49:10;97237.19;;;17.15;100.00
967;BME280;56108;48.730;9.304;2022-08-18T02:51:19;97249.63;;;17.16;100.00
967;BME280;56108;48.730;9.304;2022-08-18T02:53:29;97248.25;;;17.12;100.00
967;BME280;56108;48.730;9.304;2022-08-18T02:55:40;97244.88;;;17.10;100.00
967;BME280;56108;48.730;9.304;2022-08-18T02:57:48;97240.91;;;17.14;100.00
967;BME280;56108;48.730;9.304;2022-08-18T02:59:57;97242.03;;;17.11;100.00
967;BME280;56108;48.730;9.304;2022-08-18T03:02:08;97238.84;;;17.08;100.00
967;BME280;56108;48.730;9.304;2022-08-18T03:04:20;97237.88;;;17.17;100.00
967;BME280;56108;48.730;9.304;2022-08-18T03:06:34;97230.81;;;17.16;100.00
967;BME280;56108;48.730;9.304;2022-08-18T03:08:44;97239.78;;;17.25;100.00
967;BME280;56108;48.730;9.304;2022-08-18T03:10:57;97224.66;;;17.24;100.00
967;BME280;56108;48.730;9.304;2022-08-18T03:13:05;97216.88;;;17.12;100.00
967;BME280;56108;48.730;9.304;2022-08-18T03:15:13;97222.53;;;17.09;100.00
967;BME280;56108;48.730;9.304;2022-08-18T03:17:22;97217.78;;;17.03;100.00
967;BME280;56108;48.730;9.304;2022-08-18T03:19:30;97213.41;;;17.02;100.00
967;BME280;56108;48.730;9.304;2022-08-18T03:21:39;97211.78;;;17.09;100.00
967;BME280;56108;48.730;9.304;2022-08-18T03:23:50;97220.91;;;17.16;100.00
967;BME280;56108;48.730;9.304;2022-08-18T03:26:09;97220.59;;;17.19;100.00
967;BME280;56108;48.730;9.304;2022-08-18T03:28:18;97229.22;;;17.23;100.00
967;BME280;56108;48.730;9.304;2022-08-18T03:30:29;97225.81;;;17.21;100.00
967;BME280;56108;48.730;9.304;2022-08-18T03:32:37;97233.94;;;17.29;100.00
967;BME280;56108;48.730;9.304;2022-08-18T03:34:49;97233.03;;;17.20;100.00
967;BME280;56108;48.730;9.304;2022-08-18T03:36:58;97233.13;;;17.11;100.00
967;BME280;56108;48.730;9.304;2022-08-18T03:39:08;97229.94;;;17.07;100.00
967;BME280;56108;48.730;9.304;2022-08-18T03:41:24;97217.94;;;17.02;100.00
967;BME280;56108;48.730;9.304;2022-08-18T03:43:52;97216.88;;;16.94;100.00
967;BME280;56108;48.730;9.304;2022-08-18T03:46:05;97218.03;;;16.92;100.00
967;BME280;56108;48.730;9.304;2022-08-18T03:48:14;97219.09;;;16.99;100.00
967;BME280;56108;48.730;9.304;2022-08-18T03:50:22;97214.41;;;17.01;100.00
967;BME280;56108;48.730;9.304;2022-08-18T03:52:30;97216.94;;;17.03;100.00
967;BME280;56108;48.730;9.304;2022-08-18T03:54:45;97216.31;;;16.91;100.00
967;BME280;56108;48.730;9.304;2022-08-18T03:56:56;97216.44;;;16.81;100.00
967;BME280;56108;48.730;9.304;2022-08-18T03:59:09;97212.13;;;16.70;100.00
967;BME280;56108;48.730;9.304;2022-08-18T04:01:22;97219.47;;;16.68;100.00
967;BME280;56108;48.730;9.304;2022-08-18T04:03:31;97201.13;;;16.64;100.00
967;BME280;56108;48.730;9.304;2022-08-18T04:05:39;97208.66;;;16.60;100.00
967;BME280;56108;48.730;9.304;2022-08-18T04:07:47;97201.91;;;16.56;100.00
967;BME280;56108;48.730;9.304;2022-08-18T04:09:55;97204.44;;;16.58;100.00
967;BME280;56108;48.730;9.304;2022-08-18T04:12:09;97209.03;;;16.65;100.00
967;BME280;56108;48.730;9.304;2022-08-18T04:14:22;97222.56;;;16.56;100.00
967;BME280;56108;48.730;9.304;2022-08-18T04:16:32;97225.84;;;16.50;100.00
967;BME280;56108;48.730;9.304;2022-08-18T04:18:42;97221.78;;;16.46;100.00
967;BME280;56108;48.730;9.304;2022-08-18T04:20:50;97222.06;;;16.42;100.00
967;BME280;56108;48.730;9.304;2022-08-18T04:23:03;97222.44;;;16.30;100.00
967;BME280;56108;48.730;9.304;2022-08-18T04:25:13;97229.28;;;16.24;100.00
967;BME280;56108;48.730;9.304;2022-08-18T04:27:25;97237.41;;;16.32;100.00
967;BME280;56108;48.730;9.304;2022-08-18T04:29:33;97231.50;;;16.29;100.00
967;BME280;56108;48.730;9.304;2022-08-18T04:31:42;97230.19;;;16.33;100.00
967;BME280;56108;48.730;9.304;2022-08-18T04:33:52;97239.03;;;16.43;100.00
967;BME280;56108;48.730;9.304;2022-08-18T04:36:07;97245.78;;;16.47;100.00
967;BME280;56108;48.730;9.304;2022-08-18T04:38:22;97237.13;;;16.53;100.00
967;BME280;56108;48.730;9.304;2022-08-18T04:40:31;97237.88;;;16.63;100.00
967;BME280;56108;48.730;9.304;2022-08-18T04:42:42;97245.66;;;16.66;100.00
967;BME280;56108;48.730;9.304;2022-08-18T04:44:51;97238.28;;;16.68;100.00
967;BME280;56108;48.730;9.304;2022-08-18T04:47:04;97243.31;;;16.81;100.00
967;BME280;56108;48.730;9.304;2022-08-18T04:49:15;97250.91;;;17.04;100.00
967;BME280;56108;48.730;9.304;2022-08-18T04:51:24;97251.50;;;17.15;100.00
967;BME280;56108;48.730;9.304;2022-08-18T04:53:53;97259.75;;;17.40;100.00
967;BME280;56108;48.730;9.304;2022-08-18T04:55:59;97263.13;;;17.94;100.00
967;BME280;56108;48.730;9.304;2022-08-18T04:58:12;97275.31;;;18.57;100.00
967;BME280;56108;48.730;9.304;2022-08-18T05:00:22;97280.66;;;19.40;98.75
967;BME280;56108;48.730;9.304;2022-08-18T05:02:30;97299.84;;;19.94;92.71
967;BME280;56108;48.730;9.304;2022-08-18T05:04:42;97303.72;;;20.86;87.86
967;BME280;56108;48.730;9.304;2022-08-18T05:06:54;97306.25;;;21.42;81.08
967;BME280;56108;48.730;9.304;2022-08-18T05:09:05;97306.28;;;22.24;78.18
967;BME280;56108;48.730;9.304;2022-08-18T05:11:17;97301.75;;;21.72;75.54
967;BME280;56108;48.730;9.304;2022-08-18T05:13:27;97295.06;;;20.12;81.49
967;BME280;56108;48.730;9.304;2022-08-18T05:15:35;97297.88;;;19.39;87.49
967;BME280;56108;48.730;9.304;2022-08-18T05:18:05;97297.88;;;19.71;87.91
967;BME280;56108;48.730;9.304;2022-08-18T05:22:27;97297.47;;;22.07;79.83
967;BME280;56108;48.730;9.304;2022-08-18T05:24:36;97304.41;;;22.39;74.82
967;BME280;56108;48.730;9.304;2022-08-18T05:26:45;97299.56;;;23.22;71.88
967;BME280;56108;48.730;9.304;2022-08-18T05:28:56;97300.34;;;22.79;71.97
967;BME280;56108;48.730;9.304;2022-08-18T05:31:25;97302.16;;;22.72;72.44
967;BME280;56108;48.730;9.304;2022-08-18T05:33:34;97305.19;;;22.99;70.40
967;BME280;56108;48.730;9.304;2022-08-18T05:35:47;97295.31;;;23.55;67.10
967;BME280;56108;48.730;9.304;2022-08-18T05:40:33;97301.25;;;24.50;66.15
967;BME280;56108;48.730;9.304;2022-08-18T05:42:42;97292.63;;;24.94;64.54
967;BME280;56108;48.730;9.304;2022-08-18T05:44:56;97285.94;;;25.03;62.10
967;BME280;56108;48.730;9.304;2022-08-18T05:47:06;97292.84;;;24.99;61.49
967;BME280;56108;48.730;9.304;2022-08-18T05:49:18;97287.97;;;24.75;62.76
967;BME280;56108;48.730;9.304;2022-08-18T05:51:34;97283.28;;;23.64;67.86
967;BME280;56108;48.730;9.304;2022-08-18T05:53:44;97282.56;;;23.77;67.88
967;BME280;56108;48.730;9.304;2022-08-18T05:56:05;97295.25;;;23.06;70.99
967;BME280;56108;48.730;9.304;2022-08-18T05:58:32;97286.44;;;21.94;75.61
967;BME280;56108;48.730;9.304;2022-08-18T06:00:47;97297.09;;;21.95;77.06
967;BME280;56108;48.730;9.304;2022-08-18T06:03:11;97308.06;;;21.64;78.13
967;BME280;56108;48.730;9.304;2022-08-18T06:05:24;97301.03;;;21.09;80.78
967;BME280;56108;48.730;9.304;2022-08-18T06:07:38;97307.28;;;22.08;78.36
967;BME280;56108;48.730;9.304;2022-08-18T06:09:50;97312.22;;;22.78;74.51
967;BME280;56108;48.730;9.304;2022-08-18T06:12:08;97310.78;;;22.61;72.82
967;BME280;56108;48.730;9.304;2022-08-18T06:14:30;97315.66;;;21.23;78.76
967;BME280;56108;48.730;9.304;2022-08-18T06:17:01;97322.38;;;21.04;82.00
967;BME280;56108;48.730;9.304;2022-08-18T06:19:24;97329.53;;;19.94;86.74
967;BME280;56108;48.730;9.304;2022-08-18T06:21:44;97323.84;;;19.56;89.73
967;BME280;56108;48.730;9.304;2022-08-18T06:24:05;97323.19;;;19.38;91.70
967;BME280;56108;48.730;9.304;2022-08-18T06:26:22;97314.91;;;19.39;92.47
967;BME280;56108;48.730;9.304;2022-08-18T06:28:41;97326.59;;;20.28;89.38
967;BME280;56108;48.730;9.304;2022-08-18T06:31:00;97327.06;;;20.48;87.29
967;BME280;56108;48.730;9.304;2022-08-18T06:33:25;97316.19;;;20.64;85.57
967;BME280;56108;48.730;9.304;2022-08-18T06:35:44;97319.81;;;21.33;81.07
967;BME280;56108;48.730;9.304;2022-08-18T06:38:04;97311.47;;;21.96;77.03
967;BME280;56108;48.730;9.304;2022-08-18T06:40:30;97321.22;;;22.05;75.45
967;BME280;56108;48.730;9.304;2022-08-18T06:42:37;97319.19;;;22.22;75.05
967;BME280;56108;48.730;9.304;2022-08-18T06:44:48;97319.72;;;23.12;72.67
967;BME280;56108;48.730;9.304;2022-08-18T06:47:00;97302.66;;;21.64;76.50
967;BME280;56108;48.730;9.304;2022-08-18T06:49:23;97303.38;;;21.58;77.48
967;BME280;56108;48.730;9.304;2022-08-18T06:51:35;97309.38;;;21.30;80.08
967;BME280;56108;48.730;9.304;2022-08-18T06:53:54;97306.69;;;21.22;79.44
967;BME280;56108;48.730;9.304;2022-08-18T06:56:20;97304.66;;;20.93;79.66
967;BME280;56108;48.730;9.304;2022-08-18T06:58:30;97310.56;;;20.74;81.31
967;BME280;56108;48.730;9.304;2022-08-18T07:00:44;97299.97;;;20.17;84.56
967;BME280;56108;48.730;9.304;2022-08-18T07:03:05;97299.50;;;19.89;86.39
967;BME280;56108;48.730;9.304;2022-08-18T07:05:22;97311.00;;;19.91;87.75
967;BME280;56108;48.730;9.304;2022-08-18T07:07:34;97311.63;;;20.09;86.62
967;BME280;56108;48.730;9.304;2022-08-18T07:09:45;97313.47;;;20.17;85.89
967;BME280;56108;48.730;9.304;2022-08-18T07:12:00;97316.72;;;19.96;86.17
967;BME280;56108;48.730;9.304;2022-08-18T07:14:14;97320.28;;;19.55;87.31
967;BME280;56108;48.730;9.304;2022-08-18T07:16:32;97323.97;;;20.12;86.65
967;BME280;56108;48.730;9.304;2022-08-18T07:19:07;97324.53;;;19.58;86.73
967;BME280;56108;48.730;9.304;2022-08-18T07:21:30;97338.03;;;19.58;88.51
967;BME280;56108;48.730;9.304;2022-08-18T07:23:39;97343.06;;;20.02;89.10
967;BME280;56108;48.730;9.304;2022-08-18T07:26:11;97350.03;;;20.52;85.46
967;BME280;56108;48.730;9.304;2022-08-18T07:28:27;97355.84;;;20.72;82.77
967;BME280;56108;48.730;9.304;2022-08-18T07:30:37;97354.38;;;20.61;83.47
967;BME280;56108;48.730;9.304;2022-08-18T07:33:11;97358.78;;;20.62;84.59
967;BME280;56108;48.730;9.304;2022-08-18T07:35:53;97353.31;;;20.78;84.68
967;BME280;56108;48.730;9.304;2022-08-18T07:38:10;97363.00;;;20.96;83.81
967;BME280;56108;48.730;9.304;2022-08-18T07:40:45;97374.16;;;20.93;83.20
967;BME280;56108;48.730;9.304;2022-08-18T07:42:59;97379.44;;;20.86;82.97
967;BME280;56108;48.730;9.304;2022-08-18T07:45:15;97378.00;;;20.67;83.73
967;BME280;56108;48.730;9.304;2022-08-18T07:47:34;97379.09;;;20.42;85.49
967;BME280;56108;48.730;9.304;2022-08-18T07:49:46;97383.34;;;20.36;84.74
967;BME280;56108;48.730;9.304;2022-08-18T07:52:19;97377.94;;;20.28;85.10
967;BME280;56108;48.730;9.304;2022-08-18T07:54:58;97367.13;;;20.28;84.48
967;BME280;56108;48.730;9.304;2022-08-18T07:57:21;97364.34;;;19.97;85.39
967;BME280;56108;48.730;9.304;2022-08-18T07:59:36;97372.03;;;20.32;86.00
967;BME280;56108;48.730;9.304;2022-08-18T08:01:58;97382.66;;;20.42;85.01
967;BME280;56108;48.730;9.304;2022-08-18T08:04:21;97385.22;;;20.27;86.49
967;BME280;56108;48.730;9.304;2022-08-18T08:06:38;97380.72;;;19.71;87.88
967;BME280;56108;48.730;9.304;2022-08-18T08:09:18;97375.50;;;19.86;88.86
967;BME280;56108;48.730;9.304;2022-08-18T08:11:40;97379.69;;;19.96;87.27
967;BME280;56108;48.730;9.304;2022-08-18T08:14:00;97375.66;;;19.60;86.97
967;BME280;56108;48.730;9.304;2022-08-18T08:16:21;97376.34;;;19.70;88.34
967;BME280;56108;48.730;9.304;2022-08-18T08:18:38;97372.94;;;19.68;88.28
967;BME280;56108;48.730;9.304;2022-08-18T08:20:51;97351.50;;;19.42;91.16
967;BME280;56108;48.730;9.304;2022-08-18T08:23:06;97338.81;;;19.10;93.27
967;BME280;56108;48.730;9.304;2022-08-18T08:25:24;97325.13;;;18.87;94.12
967;BME280;56108;48.730;9.304;2022-08-18T08:28:05;97311.81;;;18.85;94.74
967;BME280;56108;48.730;9.304;2022-08-18T08:30:18;97302.91;;;18.85;95.80
967;BME280;56108;48.730;9.304;2022-08-18T08:32:32;97297.31;;;18.94;95.87
967;BME280;56108;48.730;9.304;2022-08-18T08:34:44;97293.66;;;19.28;94.83
967;BME280;56108;48.730;9.304;2022-08-18T08:37:01;97314.88;;;19.31;93.29
967;BME280;56108;48.730;9.304;2022-08-18T08:39:14;97314.22;;;19.21;92.88
967;BME280;56108;48.730;9.304;2022-08-18T08:41:30;97315.91;;;19.46;92.82
967;BME280;56108;48.730;9.304;2022-08-18T08:43:46;97316.56;;;19.56;91.86
967;BME280;56108;48.730;9.304;2022-08-18T08:46:02;97318.63;;;19.79;90.56
967;BME280;56108;48.730;9.304;2022-08-18T08:48:16;97331.81;;;20.38;88.98
967;BME280;56108;48.730;9.304;2022-08-18T08:50:28;97335.41;;;20.69;86.04
967;BME280;56108;48.730;9.304;2022-08-18T08:52:42;97344.47;;;20.84;83.94
967;BME280;56108;48.730;9.304;2022-08-18T08:54:57;97340.75;;;20.85;81.33
967;BME280;56108;48.730;9.304;2022-08-18T08:57:08;97338.94;;;20.78;81.78
967;BME280;56108;48.730;9.304;2022-08-18T08:59:22;97335.22;;;21.02;83.37
967;BME280;56108;48.730;9.304;2022-08-18T09:01:35;97330.84;;;21.01;81.61
967;BME280;56108;48.730;9.304;2022-08-18T09:03:59;97332.78;;;21.84;80.34
967;BME280;56108;48.730;9.304;2022-08-18T09:06:19;97333.66;;;22.88;75.98
967;BME280;56108;48.730;9.304;2022-08-18T09:08:41;97321.19;;;23.73;71.25
967;BME280;56108;48.730;9.304;2022-08-18T09:11:10;97309.06;;;24.31;69.40
967;BME280;56108;48.730;9.304;2022-08-18T09:13:57;97300.81;;;24.53;66.61
967;BME280;56108;48.730;9.304;2022-08-18T09:16:18;97288.34;;;24.65;65.96
967;BME280;56108;48.730;9.304;2022-08-18T09:18:45;97287.88;;;23.42;69.37
967;BME280;56108;48.730;9.304;2022-08-18T09:21:05;97286.72;;;23.30;71.30
967;BME280;56108;48.730;9.304;2022-08-18T09:23:19;97290.88;;;23.54;68.44
967;BME280;56108;48.730;9.304;2022-08-18T09:25:33;97299.06;;;23.76;67.77
967;BME280;56108;48.730;9.304;2022-08-18T09:28:06;97301.50;;;23.06;69.20
967;BME280;56108;48.730;9.304;2022-08-18T09:30:38;97310.03;;;23.89;69.03
967;BME280;56108;48.730;9.304;2022-08-18T09:32:56;97318.56;;;24.42;65.43
967;BME280;56108;48.730;9.304;2022-08-18T09:35:44;97315.16;;;25.29;61.98
967;BME280;56108;48.730;9.304;2022-08-18T09:38:08;97320.94;;;27.30;57.17
967;BME280;56108;48.730;9.304;2022-08-18T09:40:30;97335.09;;;28.08;53.82
967;BME280;56108;48.730;9.304;2022-08-18T09:43:12;97345.56;;;28.62;51.98
967;BME280;56108;48.730;9.304;2022-08-18T09:45:55;97343.69;;;28.12;52.10
967;BME280;56108;48.730;9.304;2022-08-18T09:51:30;97349.34;;;26.71;54.35
967;BME280;56108;48.730;9.304;2022-08-18T09:59:00;97344.81;;;26.96;52.77
967;BME280;56108;48.730;9.304;2022-08-18T10:01:45;97341.00;;;26.46;55.07
967;BME280;56108;48.730;9.304;2022-08-18T10:06:39;97342.66;;;27.56;51.52
967;BME280;56108;48.730;9.304;2022-08-18T10:09:15;97333.88;;;27.48;52.63
967;BME280;56108;48.730;9.304;2022-08-18T10:11:52;97333.59;;;27.56;53.13
967;BME280;56108;48.730;9.304;2022-08-18T10:14:24;97318.97;;;27.75;52.81
967;BME280;56108;48.730;9.304;2022-08-18T10:16:51;97319.00;;;27.37;53.06
967;BME280;56108;48.730;9.304;2022-08-18T10:19:31;97311.22;;;27.41;52.38
967;BME280;56108;48.730;9.304;2022-08-18T10:24:50;97322.13;;;28.84;49.02
967;BME280;56108;48.730;9.304;2022-08-18T10:27:02;97330.81;;;30.01;47.11
967;BME280;56108;48.730;9.304;2022-08-18T10:29:45;97320.50;;;29.61;47.78
967;BME280;56108;48.730;9.304;2022-08-18T10:32:35;97296.13;;;29.53;47.71
967;BME280;56108;48.730;9.304;2022-08-18T10:34:45;97290.34;;;29.31;48.32
967;BME280;56108;48.730;9.304;2022-08-18T10:36:57;97279.84;;;28.62;48.52
967;BME280;56108;48.730;9.304;2022-08-18T10:39:12;97243.97;;;27.90;51.27
967;BME280;56108;48.730;9.304;2022-08-18T10:41:42;97233.59;;;28.17;50.64
967;BME280;56108;48.730;9.304;2022-08-18T10:43:53;97241.88;;;28.83;50.37
967;BME280;56108;48.730;9.304;2022-08-18T10:46:03;97273.34;;;29.11;49.07
967;BME280;56108;48.730;9.304;2022-08-18T10:48:31;97287.28;;;28.54;50.42
967;BME280;56108;48.730;9.304;2022-08-18T10:50:48;97278.72;;;29.18;48.88
967;BME280;56108;48.730;9.304;2022-08-18T10:53:04;97265.69;;;28.83;49.84
967;BME280;56108;48.730;9.304;2022-08-18T10:55:45;97257.66;;;28.08;49.70
967;BME280;56108;48.730;9.304;2022-08-18T10:58:10;97252.63;;;28.67;48.93
967;BME280;56108;48.730;9.304;2022-08-18T11:00:36;97249.44;;;29.30;49.38
967;BME280;56108;48.730;9.304;2022-08-18T11:03:07;97257.19;;;28.36;50.55
967;BME280;56108;48.730;9.304;2022-08-18T11:05:40;97249.19;;;27.73;50.56
967;BME280;56108;48.730;9.304;2022-08-18T11:07:51;97245.53;;;27.22;52.74
967;BME280;56108;48.730;9.304;2022-08-18T11:10:15;97242.34;;;26.36;54.74
967;BME280;56108;48.730;9.304;2022-08-18T11:12:56;97243.66;;;26.78;55.27
967;BME280;56108;48.730;9.304;2022-08-18T11:15:20;97230.13;;;26.96;54.41
967;BME280;56108;48.730;9.304;2022-08-18T11:17:52;97241.91;;;26.52;53.73
967;BME280;56108;48.730;9.304;2022-08-18T11:20:05;97240.69;;;26.86;55.68
967;BME280;56108;48.730;9.304;2022-08-18T11:22:21;97237.72;;;27.57;54.82
967;BME280;56108;48.730;9.304;2022-08-18T11:24:43;97232.47;;;27.81;51.50
967;BME280;56108;48.730;9.304;2022-08-18T11:26:56;97242.53;;;26.92;52.29
967;BME280;56108;48.730;9.304;2022-08-18T11:29:24;97224.63;;;26.00;54.53
967;BME280;56108;48.730;9.304;2022-08-18T11:31:39;97232.47;;;26.48;55.78
967;BME280;56108;48.730;9.304;2022-08-18T11:33:56;97234.16;;;26.87;54.87
967;BME280;56108;48.730;9.304;2022-08-18T11:36:04;97233.47;;;27.30;52.47
967;BME280;56108;48.730;9.304;2022-08-18T11:38:14;97233.50;;;26.53;54.88
967;BME280;56108;48.730;9.304;2022-08-18T11:40:45;97241.94;;;26.32;53.73
967;BME280;56108;48.730;9.304;2022-08-18T11:43:17;97237.00;;;25.69;54.21
967;BME280;56108;48.730;9.304;2022-08-18T11:45:32;97226.72;;;25.32;56.41
967;BME280;56108;48.730;9.304;2022-08-18T11:48:08;97216.88;;;25.31;56.21
967;BME280;56108;48.730;9.304;2022-08-18T11:50:27;97207.38;;;25.00;57.75
967;BME280;56108;48.730;9.304;2022-08-18T11:52:50;97208.91;;;25.89;57.39
967;BME280;56108;48.730;9.304;2022-08-18T11:55:00;97212.97;;;26.38;55.25
967;BME280;56108;48.730;9.304;2022-08-18T11:57:28;97213.59;;;26.33;54.44
967;BME280;56108;48.730;9.304;2022-08-18T11:59:36;97193.13;;;26.11;55.80
967;BME280;56108;48.730;9.304;2022-08-18T12:02:04;97190.47;;;25.84;54.88
967;BME280;56108;48.730;9.304;2022-08-18T12:04:21;97180.59;;;25.70;56.18
967;BME280;56108;48.730;9.304;2022-08-18T12:06:31;97189.03;;;25.75;55.46
967;BME280;56108;48.730;9.304;2022-08-18T12:08:52;97188.97;;;25.88;56.50
967;BME280;56108;48.730;9.304;2022-08-18T12:11:04;97191.72;;;25.82;55.83
967;BME280;56108;48.730;9.304;2022-08-18T12:13:31;97190.59;;;26.16;55.04
967;BME280;56108;48.730;9.304;2022-08-18T12:15:39;97184.47;;;26.27;54.75
967;BME280;56108;48.730;9.304;2022-08-18T12:17:51;97194.47;;;26.46;54.79
967;BME280;56108;48.730;9.304;2022-08-18T12:20:02;97198.75;;;26.74;52.09
967;BME280;56108;48.730;9.304;2022-08-18T12:22:17;97202.13;;;26.18;53.15
967;BME280;56108;48.730;9.304;2022-08-18T12:24:27;97197.75;;;26.62;53.30
967;BME280;56108;48.730;9.304;2022-08-18T12:26:45;97194.66;;;26.90;51.61
967;BME280;56108;48.730;9.304;2022-08-18T12:28:57;97201.38;;;26.87;51.70
967;BME280;56108;48.730;9.304;2022-08-18T12:31:07;97192.97;;;26.50;52.71
967;BME280;56108;48.730;9.304;2022-08-18T12:33:25;97196.75;;;25.85;53.29
967;BME280;56108;48.730;9.304;2022-08-18T12:35:56;97189.56;;;26.10;52.84
967;BME280;56108;48.730;9.304;2022-08-18T12:38:04;97176.00;;;26.48;52.99